Time,TemperatureF,DewpointF,PressureIn,WindDirection,WindDirectionDegrees,WindSpeedMPH,WindSpeedGustMPH,Humidity,HourlyPrecipIn,Conditions,Clouds,dailyrainin,SoftwareType,DateUTC
2013-05-27 00:00:00,74.0,62.8,30.20,East,90,2.0,3.0,68,0.00,,---,0.00,VWS V14.01,2013-05-27 04:00:00,
2013-05-27 00:01:00,74.0,62.8,30.20,East,90,4.0,7.0,68,0.00,,---,0.00,VWS V14.01,2013-05-27 04:01:00,
2013-05-27 00:02:00,74.0,62.8,30.20,East,90,4.0,4.0,68,0.00,,---,0.00,VWS V14.01,2013-05-27 04:02:00,
2013-05-27 00:04:00,74.0,62.4,30.20,East,90,1.0,1.0,67,0.00,,---,0.00,VWS V14.01,2013-05-27 04:04:00,
2013-05-27 00:07:00,74.0,61.9,30.20,East,90,0.0,7.0,66,0.00,,---,0.00,VWS V14.01,2013-05-27 04:07:00,
2013-05-27 00:12:00,74.0,61.9,30.20,East,90,3.0,4.0,66,0.00,,---,0.00,VWS V14.01,2013-05-27 04:12:00,
2013-05-27 00:17:00,74.0,61.5,30.20,East,90,1.0,3.0,65,0.00,,---,0.00,VWS V14.01,2013-05-27 04:17:00,
2013-05-27 00:18:00,74.0,61.5,30.20,East,90,3.0,6.0,65,0.00,,---,0.00,VWS V14.01,2013-05-27 04:18:00,
2013-05-27 00:23:00,74.0,61.9,30.20,East,90,2.0,3.0,66,0.00,,---,0.00,VWS V14.01,2013-05-27 04:23:00,
2013-05-27 00:28:00,74.0,61.9,30.20,East,90,2.0,2.0,66,0.00,,---,0.00,VWS V14.01,2013-05-27 04:28:00,
2013-05-27 00:33:00,74.0,62.4,30.20,East,90,2.0,8.0,67,0.00,,---,0.00,VWS V14.01,2013-05-27 04:33:00,
2013-05-27 00:38:00,74.0,62.4,30.20,East,90,3.0,6.0,67,0.00,,---,0.00,VWS V14.01,2013-05-27 04:38:00,
2013-05-27 00:43:00,74.0,62.4,30.20,East,90,3.0,4.0,67,0.00,,---,0.00,VWS V14.01,2013-05-27 04:43:00,
2013-05-27 00:48:00,73.0,61.0,30.20,East,90,2.0,6.0,66,0.00,,---,0.00,VWS V14.01,2013-05-27 04:48:00,
2013-05-27 00:53:00,73.0,60.5,30.20,East,90,6.0,7.0,65,0.00,,---,0.00,VWS V14.01,2013-05-27 04:53:00,
2013-05-27 00:58:00,73.0,60.5,30.20,East,90,0.0,1.0,65,0.00,,---,0.00,VWS V14.01,2013-05-27 04:58:00,
2013-05-27 01:03:00,73.0,61.0,30.20,East,90,2.0,4.0,66,0.00,,---,0.00,VWS V14.01,2013-05-27 05:03:00,
2013-05-27 01:09:00,73.0,60.5,30.20,East,90,0.0,6.0,65,0.00,,---,0.00,VWS V14.01,2013-05-27 05:09:00,
2013-05-27 01:14:00,73.0,60.5,30.20,East,90,1.0,3.0,65,0.00,,---,0.00,VWS V14.01,2013-05-27 05:14:00,
2013-05-27 01:19:00,73.0,61.0,30.20,East,90,1.0,1.0,66,0.00,,---,0.00,VWS V14.01,2013-05-27 05:19:00,
2013-05-27 01:24:00,73.0,61.0,30.20,East,90,0.0,5.0,66,0.00,,---,0.00,VWS V14.01,2013-05-27 05:24:00,
2013-05-27 01:29:00,73.0,61.4,30.20,East,90,0.0,2.0,67,0.00,,---,0.00,VWS V14.01,2013-05-27 05:29:00,
2013-05-27 01:34:00,73.0,61.8,30.20,East,90,0.0,1.0,68,0.00,,---,0.00,VWS V14.01,2013-05-27 05:34:00,
2013-05-27 01:39:00,73.0,62.7,30.20,East,90,4.0,4.0,70,0.00,,---,0.00,VWS V14.01,2013-05-27 05:39:00,
2013-05-27 01:44:00,73.0,63.0,30.20,East,90,2.0,4.0,71,0.00,,---,0.00,VWS V14.01,2013-05-27 05:44:00,
2013-05-27 01:49:00,73.0,63.0,30.20,East,90,2.0,6.0,71,0.00,,---,0.00,VWS V14.01,2013-05-27 05:49:00,
2013-05-27 01:54:00,73.0,62.7,30.20,East,90,1.0,4.0,70,0.00,,---,0.00,VWS V14.01,2013-05-27 05:54:00,
2013-05-27 01:59:00,73.0,62.2,30.19,East,90,3.0,6.0,69,0.00,,---,0.00,VWS V14.01,2013-05-27 05:59:00,
2013-05-27 02:04:00,73.0,61.8,30.19,East,90,4.0,7.0,68,0.00,,---,0.00,VWS V14.01,2013-05-27 06:04:00,
2013-05-27 02:09:00,73.0,61.0,30.20,East,90,3.0,5.0,66,0.00,,---,0.00,VWS V14.01,2013-05-27 06:09:00,
2013-05-27 02:14:00,73.0,61.0,30.20,East,90,1.0,7.0,66,0.00,,---,0.00,VWS V14.01,2013-05-27 06:14:00,
2013-05-27 02:19:00,73.0,61.4,30.19,East,90,3.0,7.0,67,0.00,,---,0.00,VWS V14.01,2013-05-27 06:19:00,
2013-05-27 02:24:00,73.0,61.8,30.19,East,90,6.0,6.0,68,0.00,,---,0.00,VWS V14.01,2013-05-27 06:24:00,
2013-05-27 02:29:00,73.0,61.8,30.19,East,90,1.0,5.0,68,0.00,,---,0.00,VWS V14.01,2013-05-27 06:29:00,
2013-05-27 02:34:00,73.0,61.4,30.19,East,90,0.0,1.0,67,0.00,,---,0.00,VWS V14.01,2013-05-27 06:34:00,
2013-05-27 02:39:00,73.0,61.8,30.18,East,90,2.0,5.0,68,0.00,,---,0.00,VWS V14.01,2013-05-27 06:39:00,
2013-05-27 02:44:00,72.0,60.9,30.18,East,90,2.0,2.0,68,0.00,,---,0.00,VWS V14.01,2013-05-27 06:44:00,
2013-05-27 02:49:00,72.0,61.7,30.18,East,90,3.0,4.0,70,0.00,,---,0.00,VWS V14.01,2013-05-27 06:49:00,
2013-05-27 02:54:00,72.0,60.9,30.18,ESE,112,0.0,7.0,68,0.00,,---,0.00,VWS V14.01,2013-05-27 06:54:00,
2013-05-27 02:59:00,72.0,60.9,30.18,ESE,112,1.0,4.0,68,0.00,,---,0.00,VWS V14.01,2013-05-27 06:59:00,
2013-05-27 03:04:00,72.0,61.3,30.18,ESE,112,0.0,4.0,69,0.00,,---,0.00,VWS V14.01,2013-05-27 07:04:00,
2013-05-27 03:09:00,72.0,61.3,30.18,SE,135,3.0,3.0,69,0.00,,---,0.00,VWS V14.01,2013-05-27 07:09:00,
2013-05-27 03:14:00,72.0,62.1,30.18,SE,135,0.0,0.0,71,0.00,,---,0.00,VWS V14.01,2013-05-27 07:14:00,
2013-05-27 03:19:00,71.0,61.9,30.18,SE,135,1.0,3.0,73,0.00,,---,0.00,VWS V14.01,2013-05-27 07:19:00,
2013-05-27 03:24:00,71.0,61.9,30.18,ESE,112,1.0,2.0,73,0.00,,---,0.00,VWS V14.01,2013-05-27 07:24:00,
2013-05-27 03:29:00,71.0,61.9,30.18,ESE,112,0.0,3.0,73,0.00,,---,0.00,VWS V14.01,2013-05-27 07:29:00,
2013-05-27 03:34:00,71.0,62.7,30.18,ESE,112,0.0,1.0,75,0.00,,---,0.00,VWS V14.01,2013-05-27 07:34:00,
2013-05-27 03:39:00,71.0,62.7,30.18,ESE,112,0.0,3.0,75,0.00,,---,0.00,VWS V14.01,2013-05-27 07:39:00,
2013-05-27 03:44:00,71.0,62.7,30.18,ESE,112,0.0,2.0,75,0.00,,---,0.00,VWS V14.01,2013-05-27 07:44:00,
2013-05-27 03:49:00,71.0,61.9,30.18,ESE,112,0.0,4.0,73,0.00,,---,0.00,VWS V14.01,2013-05-27 07:49:00,
2013-05-27 03:54:00,71.0,62.7,30.18,ESE,112,0.0,0.0,75,0.00,,---,0.00,VWS V14.01,2013-05-27 07:54:00,
2013-05-27 03:59:00,70.0,61.7,30.18,ESE,112,0.0,0.0,75,0.00,,---,0.00,VWS V14.01,2013-05-27 07:59:00,
2013-05-27 04:04:00,70.0,61.7,30.18,ESE,112,0.0,0.0,75,0.00,,---,0.00,VWS V14.01,2013-05-27 08:04:00,
2013-05-27 04:09:00,70.0,62.5,30.18,ESE,112,0.0,0.0,77,0.00,,---,0.00,VWS V14.01,2013-05-27 08:09:00,
2013-05-27 04:14:00,70.0,62.5,30.18,ESE,112,1.0,4.0,77,0.00,,---,0.00,VWS V14.01,2013-05-27 08:14:00,
2013-05-27 04:19:00,70.0,61.7,30.18,ESE,112,1.0,3.0,75,0.00,,---,0.00,VWS V14.01,2013-05-27 08:19:00,
2013-05-27 04:24:00,70.0,61.7,30.18,ESE,112,2.0,3.0,75,0.00,,---,0.00,VWS V14.01,2013-05-27 08:24:00,
2013-05-27 04:29:00,70.0,61.7,30.18,ESE,112,1.0,1.0,75,0.00,,---,0.00,VWS V14.01,2013-05-27 08:29:00,
2013-05-27 04:34:00,70.0,62.8,30.18,ESE,112,0.0,0.0,78,0.00,,---,0.00,VWS V14.01,2013-05-27 08:34:00,
2013-05-27 04:39:00,70.0,61.7,30.18,ESE,112,0.0,5.0,75,0.00,,---,0.00,VWS V14.01,2013-05-27 08:39:00,
2013-05-27 04:44:00,70.0,61.0,30.18,ESE,112,3.0,4.0,73,0.00,,---,0.00,VWS V14.01,2013-05-27 08:44:00,
2013-05-27 04:49:00,71.0,61.5,30.18,ESE,112,2.0,2.0,72,0.00,,---,0.00,VWS V14.01,2013-05-27 08:49:00,
2013-05-27 04:54:00,71.0,61.1,30.18,ESE,112,3.0,8.0,71,0.00,,---,0.00,VWS V14.01,2013-05-27 08:54:00,
2013-05-27 04:59:00,71.0,61.1,30.17,ESE,112,1.0,6.0,71,0.00,,---,0.00,VWS V14.01,2013-05-27 08:59:00,
2013-05-27 05:04:00,71.0,61.5,30.17,ESE,112,3.0,3.0,72,0.00,,---,0.00,VWS V14.01,2013-05-27 09:04:00,
2013-05-27 05:09:00,71.0,61.9,30.17,ESE,112,0.0,0.0,73,0.00,,---,0.00,VWS V14.01,2013-05-27 09:09:00,
2013-05-27 05:14:00,71.0,62.3,30.17,ESE,112,0.0,2.0,74,0.00,,---,0.00,VWS V14.01,2013-05-27 09:14:00,
2013-05-27 05:19:00,70.0,61.7,30.17,ESE,112,0.0,0.0,75,0.00,,---,0.00,VWS V14.01,2013-05-27 09:19:00,
2013-05-27 05:24:00,70.0,61.7,30.17,ESE,112,2.0,6.0,75,0.00,,---,0.00,VWS V14.01,2013-05-27 09:24:00,
2013-05-27 05:29:00,70.0,61.7,30.17,ESE,112,0.0,3.0,75,0.00,,---,0.00,VWS V14.01,2013-05-27 09:29:00,
2013-05-27 05:34:00,70.0,61.7,30.17,ESE,112,0.0,4.0,75,0.00,,---,0.00,VWS V14.01,2013-05-27 09:34:00,
2013-05-27 05:39:00,70.0,61.3,30.17,ESE,112,2.0,3.0,74,0.00,,---,0.00,VWS V14.01,2013-05-27 09:39:00,
2013-05-27 05:44:00,70.0,60.6,30.17,ESE,112,0.0,4.0,72,0.00,,---,0.00,VWS V14.01,2013-05-27 09:44:00,
2013-05-27 05:49:00,70.0,60.2,30.18,ESE,112,2.0,6.0,71,0.00,,---,0.00,VWS V14.01,2013-05-27 09:49:00,
2013-05-27 05:54:00,70.0,61.0,30.18,ESE,112,0.0,2.0,73,0.00,,---,0.00,VWS V14.01,2013-05-27 09:54:00,
2013-05-27 05:59:00,70.0,61.0,30.17,ESE,112,0.0,0.0,73,0.00,,---,0.00,VWS V14.01,2013-05-27 09:59:00,
2013-05-27 06:04:00,70.0,61.7,30.17,ESE,112,0.0,2.0,75,0.00,,---,0.00,VWS V14.01,2013-05-27 10:04:00,
2013-05-27 06:09:00,70.0,61.7,30.18,ESE,112,0.0,0.0,75,0.00,,---,0.00,VWS V14.01,2013-05-27 10:09:00,
2013-05-27 06:14:00,69.0,61.1,30.18,ESE,112,4.0,5.0,76,0.00,,---,0.00,VWS V14.01,2013-05-27 10:14:00,
2013-05-27 06:19:00,69.0,61.1,30.18,ESE,112,1.0,3.0,76,0.00,,---,0.00,VWS V14.01,2013-05-27 10:19:00,
2013-05-27 06:24:00,69.0,61.5,30.18,ESE,112,0.0,0.0,77,0.00,,---,0.00,VWS V14.01,2013-05-27 10:24:00,
2013-05-27 06:29:00,69.0,61.1,30.18,ESE,112,0.0,2.0,76,0.00,,---,0.00,VWS V14.01,2013-05-27 10:29:00,
2013-05-27 06:34:00,69.0,61.1,30.18,ESE,112,0.0,0.0,76,0.00,,---,0.00,VWS V14.01,2013-05-27 10:34:00,
2013-05-27 06:40:00,69.0,60.8,30.18,ESE,112,0.0,3.0,75,0.00,,---,0.00,VWS V14.01,2013-05-27 10:40:00,
2013-05-27 06:45:00,69.0,61.1,30.18,ESE,112,0.0,0.0,76,0.00,,---,0.00,VWS V14.01,2013-05-27 10:45:00,
2013-05-27 06:50:00,69.0,61.5,30.19,ESE,112,2.0,3.0,77,0.00,,---,0.00,VWS V14.01,2013-05-27 10:50:00,
2013-05-27 06:55:00,69.0,61.9,30.19,ESE,112,3.0,3.0,78,0.00,,---,0.00,VWS V14.01,2013-05-27 10:55:00,
2013-05-27 07:00:00,69.0,61.1,30.19,ESE,112,1.0,1.0,76,0.00,,---,0.00,VWS V14.01,2013-05-27 11:00:00,
2013-05-27 07:06:00,69.0,61.5,30.19,ESE,112,1.0,2.0,77,0.00,,---,0.00,VWS V14.01,2013-05-27 11:06:00,
2013-05-27 07:11:00,70.0,62.8,30.19,ESE,112,0.0,0.0,78,0.00,,---,0.00,VWS V14.01,2013-05-27 11:11:00,
2013-05-27 07:16:00,70.0,62.8,30.19,ESE,112,0.0,0.0,78,0.00,,---,0.00,VWS V14.01,2013-05-27 11:16:00,
2013-05-27 07:21:00,70.0,61.7,30.19,ESE,112,4.0,6.0,75,0.00,,---,0.00,VWS V14.01,2013-05-27 11:21:00,
2013-05-27 07:26:00,71.0,62.7,30.19,ESE,112,0.0,4.0,75,0.00,,---,0.00,VWS V14.01,2013-05-27 11:26:00,
2013-05-27 07:31:00,71.0,62.7,30.19,ESE,112,0.0,1.0,75,0.00,,---,0.00,VWS V14.01,2013-05-27 11:31:00,
2013-05-27 07:36:00,71.0,61.9,30.19,ESE,112,0.0,3.0,73,0.00,,---,0.00,VWS V14.01,2013-05-27 11:36:00,
2013-05-27 07:41:00,72.0,62.9,30.19,East,90,0.0,1.0,73,0.00,,---,0.00,VWS V14.01,2013-05-27 11:41:00,
2013-05-27 07:46:00,72.0,62.9,30.19,East,90,0.0,2.0,73,0.00,,---,0.00,VWS V14.01,2013-05-27 11:46:00,
2013-05-27 07:51:00,72.0,62.5,30.19,East,90,2.0,3.0,72,0.00,,---,0.00,VWS V14.01,2013-05-27 11:51:00,
2013-05-27 07:56:00,72.0,62.5,30.19,East,90,0.0,1.0,72,0.00,,---,0.00,VWS V14.01,2013-05-27 11:56:00,
2013-05-27 08:02:00,73.0,63.0,30.19,East,90,3.0,3.0,71,0.00,,---,0.00,VWS V14.01,2013-05-27 12:02:00,
2013-05-27 08:07:00,73.0,62.2,30.19,East,90,7.0,7.0,69,0.00,,---,0.00,VWS V14.01,2013-05-27 12:07:00,
2013-05-27 08:12:00,73.0,63.8,30.19,East,90,1.0,1.0,73,0.00,,---,0.00,VWS V14.01,2013-05-27 12:12:00,
2013-05-27 08:17:00,73.0,62.7,30.19,East,90,3.0,6.0,70,0.00,,---,0.00,VWS V14.01,2013-05-27 12:17:00,
2013-05-27 08:22:00,74.0,63.2,30.19,East,90,0.0,6.0,69,0.00,,---,0.00,VWS V14.01,2013-05-27 12:22:00,
2013-05-27 08:27:00,74.0,64.0,30.19,East,90,1.0,3.0,71,0.00,,---,0.00,VWS V14.01,2013-05-27 12:27:00,
2013-05-27 08:32:00,74.0,62.8,30.19,East,90,3.0,7.0,68,0.00,,---,0.00,VWS V14.01,2013-05-27 12:32:00,
2013-05-27 08:37:00,74.0,62.8,30.19,East,90,1.0,5.0,68,0.00,,---,0.00,VWS V14.01,2013-05-27 12:37:00,
2013-05-27 08:42:00,75.0,63.3,30.19,East,90,3.0,3.0,67,0.00,,---,0.00,VWS V14.01,2013-05-27 12:42:00,
2013-05-27 08:47:00,75.0,63.3,30.19,East,90,0.0,4.0,67,0.00,,---,0.00,VWS V14.01,2013-05-27 12:47:00,
2013-05-27 08:52:00,75.0,62.9,30.19,East,90,2.0,5.0,66,0.00,,---,0.00,VWS V14.01,2013-05-27 12:52:00,
2013-05-27 08:57:00,75.0,62.9,30.19,East,90,2.0,8.0,66,0.00,,---,0.00,VWS V14.01,2013-05-27 12:57:00,
2013-05-27 09:02:00,75.0,62.9,30.19,East,90,4.0,6.0,66,0.00,,---,0.00,VWS V14.01,2013-05-27 13:02:00,
2013-05-27 09:07:00,76.0,63.4,30.19,ESE,112,6.0,7.0,65,0.00,,---,0.00,VWS V14.01,2013-05-27 13:07:00,
2013-05-27 09:12:00,76.0,63.4,30.19,East,90,4.0,5.0,65,0.00,,---,0.00,VWS V14.01,2013-05-27 13:12:00,
2013-05-27 09:17:00,76.0,63.8,30.19,ESE,112,5.0,9.0,66,0.00,,---,0.00,VWS V14.01,2013-05-27 13:17:00,
2013-05-27 09:23:00,76.0,64.7,30.19,East,90,2.0,11.0,68,0.00,,---,0.00,VWS V14.01,2013-05-27 13:23:00,
2013-05-27 09:28:00,76.0,62.5,30.19,East,90,3.0,7.0,63,0.00,,---,0.00,VWS V14.01,2013-05-27 13:28:00,
2013-05-27 09:33:00,76.0,63.0,30.19,East,90,4.0,9.0,64,0.00,,---,0.00,VWS V14.01,2013-05-27 13:33:00,
2013-05-27 09:38:00,77.0,65.2,30.18,ESE,112,3.0,6.0,67,0.00,,---,0.00,VWS V14.01,2013-05-27 13:38:00,
2013-05-27 09:43:00,77.0,63.0,30.18,East,90,1.0,8.0,62,0.00,,---,0.00,VWS V14.01,2013-05-27 13:43:00,
2013-05-27 09:48:00,77.0,63.9,30.19,East,90,1.0,7.0,64,0.00,,---,0.00,VWS V14.01,2013-05-27 13:48:00,
2013-05-27 09:53:00,77.0,63.0,30.19,ESE,112,0.0,6.0,62,0.00,,---,0.00,VWS V14.01,2013-05-27 13:53:00,
2013-05-27 09:58:00,77.0,64.8,30.19,ESE,112,0.0,5.0,66,0.00,,---,0.00,VWS V14.01,2013-05-27 13:58:00,
2013-05-27 10:03:00,78.0,65.7,30.19,ESE,112,2.0,2.0,66,0.00,,---,0.00,VWS V14.01,2013-05-27 14:03:00,
2013-05-27 10:08:00,78.0,64.8,30.19,ESE,112,2.0,5.0,64,0.00,,---,0.00,VWS V14.01,2013-05-27 14:08:00,
2013-05-27 10:13:00,78.0,63.0,30.19,East,90,3.0,6.0,60,0.00,,---,0.00,VWS V14.01,2013-05-27 14:13:00,
2013-05-27 10:18:00,79.0,63.9,30.18,ESE,112,10.0,10.0,60,0.00,,---,0.00,VWS V14.01,2013-05-27 14:18:00,
2013-05-27 10:23:00,79.0,65.8,30.18,East,90,1.0,7.0,64,0.00,,---,0.00,VWS V14.01,2013-05-27 14:23:00,
2013-05-27 10:28:00,79.0,63.5,30.19,East,90,4.0,12.0,59,0.00,,---,0.00,VWS V14.01,2013-05-27 14:28:00,
2013-05-27 10:33:00,79.0,64.9,30.19,East,90,1.0,3.0,62,0.00,,---,0.00,VWS V14.01,2013-05-27 14:33:00,
2013-05-27 10:39:00,80.0,65.8,30.19,East,90,1.0,6.0,62,0.00,,---,0.00,VWS V14.01,2013-05-27 14:39:00,
2013-05-27 10:44:00,81.0,64.8,30.19,North,360,4.0,5.0,58,0.00,,---,0.00,VWS V14.01,2013-05-27 14:44:00,
2013-05-27 10:49:00,81.0,66.8,30.18,East,90,6.0,6.0,62,0.00,,---,0.00,VWS V14.01,2013-05-27 14:49:00,
2013-05-27 10:54:00,82.0,66.8,30.18,East,90,2.0,7.0,60,0.00,,---,0.00,VWS V14.01,2013-05-27 14:54:00,
2013-05-27 10:59:00,82.0,66.3,30.18,East,90,4.0,6.0,59,0.00,,---,0.00,VWS V14.01,2013-05-27 14:59:00,
2013-05-27 11:04:00,82.0,66.3,30.18,East,90,0.0,7.0,59,0.00,,---,0.00,VWS V14.01,2013-05-27 15:04:00,
2013-05-27 11:09:00,82.0,65.3,30.18,East,90,0.0,3.0,57,0.00,,---,0.00,VWS V14.01,2013-05-27 15:09:00,
2013-05-27 11:14:00,82.0,65.8,30.18,East,90,4.0,7.0,58,0.00,,---,0.00,VWS V14.01,2013-05-27 15:14:00,
2013-05-27 11:19:00,81.0,65.3,30.18,East,90,3.0,9.0,59,0.00,,---,0.00,VWS V14.01,2013-05-27 15:19:00,
2013-05-27 11:24:00,82.0,65.8,30.18,ENE,67,1.0,5.0,58,0.00,,---,0.00,VWS V14.01,2013-05-27 15:24:00,
2013-05-27 11:29:00,82.0,65.8,30.18,East,90,6.0,9.0,58,0.00,,---,0.00,VWS V14.01,2013-05-27 15:29:00,
2013-05-27 11:34:00,82.0,68.2,30.18,ENE,67,0.0,2.0,63,0.00,,---,0.00,VWS V14.01,2013-05-27 15:34:00,
2013-05-27 11:39:00,83.0,68.2,30.18,ESE,112,2.0,6.0,61,0.00,,---,0.00,VWS V14.01,2013-05-27 15:39:00,
2013-05-27 11:44:00,83.0,67.2,30.18,East,90,2.0,4.0,59,0.00,,---,0.00,VWS V14.01,2013-05-27 15:44:00,
2013-05-27 11:49:00,83.0,68.2,30.18,East,90,0.0,2.0,61,0.00,,---,0.00,VWS V14.01,2013-05-27 15:49:00,
2013-05-27 11:54:00,83.0,66.7,30.18,East,90,7.0,11.0,58,0.00,,---,0.00,VWS V14.01,2013-05-27 15:54:00,
2013-05-27 11:59:00,83.0,67.2,30.18,East,90,4.0,6.0,59,0.00,,---,0.00,VWS V14.01,2013-05-27 15:59:00,
2013-05-27 12:04:00,84.0,66.6,30.18,East,90,1.0,4.0,56,0.00,,---,0.00,VWS V14.01,2013-05-27 16:04:00,
2013-05-27 12:09:00,84.0,68.1,30.18,ESE,112,0.0,5.0,59,0.00,,---,0.00,VWS V14.01,2013-05-27 16:09:00,
2013-05-27 12:14:00,84.0,67.7,30.18,East,90,5.0,6.0,58,0.00,,---,0.00,VWS V14.01,2013-05-27 16:14:00,
2013-05-27 12:19:00,83.0,66.7,30.18,East,90,1.0,7.0,58,0.00,,---,0.00,VWS V14.01,2013-05-27 16:19:00,
2013-05-27 12:24:00,83.0,68.2,30.18,East,90,4.0,4.0,61,0.00,,---,0.00,VWS V14.01,2013-05-27 16:24:00,
2013-05-27 12:29:00,83.0,65.2,30.18,East,90,2.0,10.0,55,0.00,,---,0.00,VWS V14.01,2013-05-27 16:29:00,
2013-05-27 12:34:00,83.0,67.2,30.18,ESE,112,0.0,7.0,59,0.00,,---,0.00,VWS V14.01,2013-05-27 16:34:00,
2013-05-27 12:39:00,83.0,66.7,30.18,ESE,112,2.0,7.0,58,0.00,,---,0.00,VWS V14.01,2013-05-27 16:39:00,
2013-05-27 12:44:00,83.0,67.2,30.18,East,90,6.0,8.0,59,0.00,,---,0.00,VWS V14.01,2013-05-27 16:44:00,
2013-05-27 12:49:00,84.0,67.1,30.18,ESE,112,0.0,8.0,57,0.00,,---,0.00,VWS V14.01,2013-05-27 16:49:00,
2013-05-27 12:54:00,83.0,65.2,30.18,ESE,112,9.0,9.0,55,0.00,,---,0.00,VWS V14.01,2013-05-27 16:54:00,
2013-05-27 12:59:00,82.0,65.8,30.18,East,90,8.0,11.0,58,0.00,,---,0.00,VWS V14.01,2013-05-27 16:59:00,
2013-05-27 13:04:00,83.0,66.7,30.18,ESE,112,3.0,8.0,58,0.00,,---,0.00,VWS V14.01,2013-05-27 17:04:00,
2013-05-27 13:09:00,82.0,67.2,30.18,North,360,1.0,5.0,61,0.00,,---,0.00,VWS V14.01,2013-05-27 17:09:00,
2013-05-27 13:14:00,83.0,69.6,30.18,ESE,112,0.0,4.0,64,0.00,,---,0.00,VWS V14.01,2013-05-27 17:14:00,
2013-05-27 13:19:00,84.0,68.1,30.17,East,90,3.0,8.0,59,0.00,,---,0.00,VWS V14.01,2013-05-27 17:19:00,
2013-05-27 13:24:00,84.0,69.1,30.17,ENE,67,1.0,8.0,61,0.00,,---,0.00,VWS V14.01,2013-05-27 17:24:00,
2013-05-27 13:29:00,83.0,67.2,30.17,ESE,112,6.0,6.0,59,0.00,,---,0.00,VWS V14.01,2013-05-27 17:29:00,
2013-05-27 13:34:00,83.0,67.7,30.17,East,90,2.0,9.0,60,0.00,,---,0.00,VWS V14.01,2013-05-27 17:34:00,
2013-05-27 13:39:00,83.0,66.2,30.18,East,90,6.0,9.0,57,0.00,,---,0.00,VWS V14.01,2013-05-27 17:39:00,
2013-05-27 13:44:00,83.0,68.2,30.18,North,360,0.0,2.0,61,0.00,,---,0.00,VWS V14.01,2013-05-27 17:44:00,
2013-05-27 13:49:00,83.0,68.7,30.17,East,90,5.0,9.0,62,0.00,,---,0.00,VWS V14.01,2013-05-27 17:49:00,
2013-05-27 13:54:00,84.0,70.1,30.17,East,90,2.0,5.0,63,0.00,,---,0.00,VWS V14.01,2013-05-27 17:54:00,
2013-05-27 13:59:00,83.0,68.7,30.17,East,90,3.0,9.0,62,0.00,,---,0.00,VWS V14.01,2013-05-27 17:59:00,
2013-05-27 14:04:00,84.0,71.0,30.17,East,90,9.0,9.0,65,0.00,,---,0.00,VWS V14.01,2013-05-27 18:04:00,
2013-05-27 14:09:00,84.0,68.1,30.17,East,90,2.0,3.0,59,0.00,,---,0.00,VWS V14.01,2013-05-27 18:09:00,
2013-05-27 14:14:00,84.0,67.1,30.17,East,90,1.0,8.0,57,0.00,,---,0.00,VWS V14.01,2013-05-27 18:14:00,
2013-05-27 14:19:00,83.0,67.7,30.16,East,90,5.0,6.0,60,0.00,,---,0.00,VWS V14.01,2013-05-27 18:19:00,
2013-05-27 14:24:00,83.0,65.7,30.16,East,90,5.0,11.0,56,0.00,,---,0.00,VWS V14.01,2013-05-27 18:24:00,
2013-05-27 14:29:00,83.0,67.2,30.17,East,90,6.0,7.0,59,0.00,,---,0.00,VWS V14.01,2013-05-27 18:29:00,
2013-05-27 14:34:00,84.0,70.1,30.17,East,90,1.0,10.0,63,0.00,,---,0.00,VWS V14.01,2013-05-27 18:34:00,
2013-05-27 14:39:00,84.0,69.1,30.15,East,90,1.0,7.0,61,0.00,,---,0.00,VWS V14.01,2013-05-27 18:39:00,
2013-05-27 14:44:00,84.0,70.1,30.15,NE,45,0.0,5.0,63,0.00,,---,0.00,VWS V14.01,2013-05-27 18:44:00,
2013-05-27 14:49:00,84.0,68.1,30.15,East,90,7.0,7.0,59,0.00,,---,0.00,VWS V14.01,2013-05-27 18:49:00,
2013-05-27 14:54:00,84.0,71.0,30.15,East,90,0.0,7.0,65,0.00,,---,0.00,VWS V14.01,2013-05-27 18:54:00,
2013-05-27 14:59:00,84.0,69.6,30.15,ESE,112,5.0,10.0,62,0.00,,---,0.00,VWS V14.01,2013-05-27 18:59:00,
2013-05-27 15:04:00,83.0,67.2,30.15,East,90,9.0,10.0,59,0.00,,---,0.00,VWS V14.01,2013-05-27 19:04:00,
2013-05-27 15:09:00,82.0,67.7,30.15,ESE,112,3.0,5.0,62,0.00,,---,0.00,VWS V14.01,2013-05-27 19:09:00,
2013-05-27 15:14:00,82.0,68.2,30.15,East,90,6.0,7.0,63,0.00,,---,0.00,VWS V14.01,2013-05-27 19:14:00,
2013-05-27 15:19:00,82.0,67.7,30.15,ESE,112,7.0,9.0,62,0.00,,---,0.00,VWS V14.01,2013-05-27 19:19:00,
2013-05-27 15:24:00,81.0,66.8,30.15,East,90,5.0,8.0,62,0.00,,---,0.00,VWS V14.01,2013-05-27 19:24:00,
2013-05-27 15:29:00,81.0,68.1,30.15,ESE,112,3.0,6.0,65,0.00,,---,0.00,VWS V14.01,2013-05-27 19:29:00,
2013-05-27 15:34:00,82.0,70.0,30.15,East,90,4.0,9.0,67,0.00,,---,0.00,VWS V14.01,2013-05-27 19:34:00,
2013-05-27 15:39:00,83.0,70.0,30.14,East,90,1.0,10.0,65,0.00,,---,0.00,VWS V14.01,2013-05-27 19:39:00,
2013-05-27 15:44:00,82.0,67.7,30.14,East,90,3.0,7.0,62,0.00,,---,0.00,VWS V14.01,2013-05-27 19:44:00,
2013-05-27 15:49:00,82.0,68.6,30.14,East,90,2.0,7.0,64,0.00,,---,0.00,VWS V14.01,2013-05-27 19:49:00,
2013-05-27 15:54:00,83.0,68.2,30.14,East,90,4.0,6.0,61,0.00,,---,0.00,VWS V14.01,2013-05-27 19:54:00,
2013-05-27 15:59:00,83.0,67.2,30.14,ESE,112,6.0,7.0,59,0.00,,---,0.00,VWS V14.01,2013-05-27 19:59:00,
2013-05-27 16:04:00,83.0,68.2,30.14,East,90,1.0,4.0,61,0.00,,---,0.00,VWS V14.01,2013-05-27 20:04:00,
2013-05-27 16:09:00,82.0,68.2,30.13,East,90,4.0,7.0,63,0.00,,---,0.00,VWS V14.01,2013-05-27 20:09:00,
2013-05-27 16:14:00,81.0,67.7,30.13,East,90,6.0,10.0,64,0.00,,---,0.00,VWS V14.01,2013-05-27 20:14:00,
2013-05-27 16:19:00,81.0,68.6,30.14,East,90,4.0,6.0,66,0.00,,---,0.00,VWS V14.01,2013-05-27 20:19:00,
2013-05-27 16:24:00,81.0,68.6,30.14,East,90,5.0,7.0,66,0.00,,---,0.00,VWS V14.01,2013-05-27 20:24:00,
2013-05-27 16:29:00,82.0,68.2,30.13,East,90,2.0,8.0,63,0.00,,---,0.00,VWS V14.01,2013-05-27 20:29:00,
2013-05-27 16:34:00,81.0,68.6,30.13,ESE,112,0.0,2.0,66,0.00,,---,0.00,VWS V14.01,2013-05-27 20:34:00,
2013-05-27 16:39:00,82.0,68.6,30.13,East,90,4.0,11.0,64,0.00,,---,0.00,VWS V14.01,2013-05-27 20:39:00,
2013-05-27 16:44:00,82.0,68.6,30.13,East,90,3.0,6.0,64,0.00,,---,0.00,VWS V14.01,2013-05-27 20:44:00,
2013-05-27 16:49:00,82.0,68.2,30.13,East,90,2.0,7.0,63,0.00,,---,0.00,VWS V14.01,2013-05-27 20:49:00,
2013-05-27 16:54:00,82.0,69.5,30.13,East,90,1.0,5.0,66,0.00,,---,0.00,VWS V14.01,2013-05-27 20:54:00,
2013-05-27 16:59:00,82.0,67.7,30.12,East,90,6.0,9.0,62,0.00,,---,0.00,VWS V14.01,2013-05-27 20:59:00,
2013-05-27 17:04:00,82.0,67.7,30.12,ESE,112,6.0,6.0,62,0.00,,---,0.00,VWS V14.01,2013-05-27 21:04:00,
2013-05-27 17:09:00,81.0,67.7,30.12,ESE,112,3.0,9.0,64,0.00,,---,0.00,VWS V14.01,2013-05-27 21:09:00,
2013-05-27 17:14:00,81.0,68.6,30.12,East,90,5.0,7.0,66,0.00,,---,0.00,VWS V14.01,2013-05-27 21:14:00,
2013-05-27 17:19:00,81.0,68.6,30.12,East,90,1.0,6.0,66,0.00,,---,0.00,VWS V14.01,2013-05-27 21:19:00,
2013-05-27 17:24:00,80.0,68.1,30.12,East,90,1.0,3.0,67,0.00,,---,0.00,VWS V14.01,2013-05-27 21:24:00,
2013-05-27 17:29:00,80.0,68.9,30.13,East,90,2.0,7.0,69,0.00,,---,0.00,VWS V14.01,2013-05-27 21:29:00,
2013-05-27 17:34:00,80.0,69.3,30.13,East,90,1.0,1.0,70,0.00,,---,0.00,VWS V14.01,2013-05-27 21:34:00,
2013-05-27 17:39:00,80.0,68.5,30.13,ESE,112,0.0,8.0,68,0.00,,---,0.00,VWS V14.01,2013-05-27 21:39:00,
2013-05-27 17:44:00,79.0,68.0,30.13,East,90,2.0,7.0,69,0.00,,---,0.00,VWS V14.01,2013-05-27 21:44:00,
2013-05-27 17:49:00,79.0,68.4,30.12,ESE,112,1.0,6.0,70,0.00,,---,0.00,VWS V14.01,2013-05-27 21:49:00,
2013-05-27 17:54:00,79.0,68.8,30.12,East,90,3.0,5.0,71,0.00,,---,0.00,VWS V14.01,2013-05-27 21:54:00,
2013-05-27 17:59:00,79.0,68.8,30.12,ESE,112,1.0,2.0,71,0.00,,---,0.00,VWS V14.01,2013-05-27 21:59:00,
2013-05-27 18:04:00,78.0,67.0,30.12,East,90,5.0,7.0,69,0.00,,---,0.00,VWS V14.01,2013-05-27 22:04:00,
2013-05-27 18:09:00,78.0,67.8,30.13,East,90,0.0,2.0,71,0.00,,---,0.00,VWS V14.01,2013-05-27 22:09:00,
2013-05-27 18:14:00,78.0,68.2,30.13,West,270,1.0,2.0,72,0.00,,---,0.00,VWS V14.01,2013-05-27 22:14:00,
2013-05-27 18:19:00,78.0,68.2,30.12,East,90,2.0,6.0,72,0.00,,---,0.00,VWS V14.01,2013-05-27 22:19:00,
2013-05-27 18:24:00,78.0,68.2,30.12,East,90,1.0,4.0,72,0.00,,---,0.00,VWS V14.01,2013-05-27 22:24:00,
2013-05-27 18:29:00,78.0,68.2,30.13,ESE,112,0.0,10.0,72,0.00,,---,0.00,VWS V14.01,2013-05-27 22:29:00,
2013-05-27 18:34:00,78.0,68.2,30.13,ESE,112,6.0,6.0,72,0.00,,---,0.00,VWS V14.01,2013-05-27 22:34:00,
2013-05-27 18:39:00,78.0,68.2,30.13,East,90,4.0,4.0,72,0.00,,---,0.00,VWS V14.01,2013-05-27 22:39:00,
2013-05-27 18:44:00,78.0,68.2,30.13,East,90,0.0,0.0,72,0.00,,---,0.00,VWS V14.01,2013-05-27 22:44:00,
2013-05-27 18:50:00,77.0,66.9,30.13,East,90,7.0,7.0,71,0.00,,---,0.00,VWS V14.01,2013-05-27 22:50:00,
2013-05-27 18:55:00,77.0,67.3,30.13,ESE,112,2.0,2.0,72,0.00,,---,0.00,VWS V14.01,2013-05-27 22:55:00,
2013-05-27 19:00:00,77.0,67.3,30.13,ESE,112,1.0,9.0,72,0.00,,---,0.00,VWS V14.01,2013-05-27 23:00:00,
2013-05-27 19:06:00,77.0,68.1,30.13,East,90,1.0,5.0,74,0.00,,---,0.00,VWS V14.01,2013-05-27 23:06:00,
2013-05-27 19:11:00,76.0,67.9,30.13,East,90,2.0,3.0,76,0.00,,---,0.00,VWS V14.01,2013-05-27 23:11:00,
2013-05-27 19:16:00,76.0,67.5,30.13,East,90,1.0,8.0,75,0.00,,---,0.00,VWS V14.01,2013-05-27 23:16:00,
2013-05-27 19:21:00,76.0,67.9,30.13,East,90,1.0,3.0,76,0.00,,---,0.00,VWS V14.01,2013-05-27 23:21:00,
2013-05-27 19:26:00,76.0,67.5,30.13,East,90,0.0,5.0,75,0.00,,---,0.00,VWS V14.01,2013-05-27 23:26:00,
2013-05-27 19:31:00,76.0,67.1,30.13,East,90,4.0,6.0,74,0.00,,---,0.00,VWS V14.01,2013-05-27 23:31:00,
2013-05-27 19:36:00,76.0,67.9,30.13,ESE,112,2.0,9.0,76,0.00,,---,0.00,VWS V14.01,2013-05-27 23:36:00,
2013-05-27 19:41:00,76.0,68.7,30.13,ESE,112,0.0,5.0,78,0.00,,---,0.00,VWS V14.01,2013-05-27 23:41:00,
2013-05-27 19:46:00,76.0,68.7,30.13,East,90,0.0,3.0,78,0.00,,---,0.00,VWS V14.01,2013-05-27 23:46:00,
2013-05-27 19:51:00,76.0,68.7,30.13,East,90,2.0,5.0,78,0.00,,---,0.00,VWS V14.01,2013-05-27 23:51:00,
2013-05-27 19:56:00,76.0,69.0,30.13,East,90,2.0,10.0,79,0.00,,---,0.00,VWS V14.01,2013-05-27 23:56:00,
2013-05-27 20:01:00,75.0,66.9,30.14,East,90,4.0,6.0,76,0.00,,---,0.00,VWS V14.01,2013-05-28 00:01:00,
2013-05-27 20:06:00,75.0,67.3,30.14,East,90,3.0,7.0,77,0.00,,---,0.00,VWS V14.01,2013-05-28 00:06:00,
2013-05-27 20:11:00,75.0,67.3,30.14,East,90,1.0,6.0,77,0.00,,---,0.00,VWS V14.01,2013-05-28 00:11:00,
2013-05-27 20:16:00,75.0,66.9,30.14,East,90,4.0,9.0,76,0.00,,---,0.00,VWS V14.01,2013-05-28 00:16:00,
2013-05-27 20:21:00,75.0,66.9,30.14,ESE,112,6.0,6.0,76,0.00,,---,0.00,VWS V14.01,2013-05-28 00:21:00,
2013-05-27 20:26:00,75.0,66.9,30.14,East,90,5.0,5.0,76,0.00,,---,0.00,VWS V14.01,2013-05-28 00:26:00,
2013-05-27 20:31:00,75.0,67.7,30.14,East,90,1.0,6.0,78,0.00,,---,0.00,VWS V14.01,2013-05-28 00:31:00,
2013-05-27 20:36:00,75.0,67.7,30.14,ESE,112,1.0,6.0,78,0.00,,---,0.00,VWS V14.01,2013-05-28 00:36:00,
2013-05-27 20:41:00,75.0,67.3,30.15,East,90,7.0,8.0,77,0.00,,---,0.00,VWS V14.01,2013-05-28 00:41:00,
2013-05-27 20:46:00,75.0,67.7,30.15,East,90,5.0,11.0,78,0.00,,---,0.00,VWS V14.01,2013-05-28 00:46:00,
2013-05-27 20:51:00,75.0,67.7,30.15,East,90,3.0,4.0,78,0.00,,---,0.00,VWS V14.01,2013-05-28 00:51:00,
2013-05-27 20:56:00,75.0,68.4,30.15,East,90,2.0,6.0,80,0.00,,---,0.00,VWS V14.01,2013-05-28 00:56:00,
2013-05-27 21:01:00,75.0,68.1,30.15,East,90,4.0,6.0,79,0.00,,---,0.00,VWS V14.01,2013-05-28 01:01:00,
2013-05-27 21:06:00,75.0,68.1,30.15,ENE,67,2.0,4.0,79,0.00,,---,0.00,VWS V14.01,2013-05-28 01:06:00,
2013-05-27 21:11:00,75.0,68.4,30.15,East,90,2.0,9.0,80,0.00,,---,0.00,VWS V14.01,2013-05-28 01:11:00,
2013-05-27 21:16:00,75.0,68.1,30.15,East,90,5.0,6.0,79,0.00,,---,0.00,VWS V14.01,2013-05-28 01:16:00,
2013-05-27 21:21:00,74.0,67.1,30.15,ESE,112,5.0,8.0,79,0.00,,---,0.00,VWS V14.01,2013-05-28 01:21:00,
2013-05-27 21:27:00,74.0,67.1,30.15,ESE,112,2.0,4.0,79,0.00,,---,0.00,VWS V14.01,2013-05-28 01:27:00,
2013-05-27 21:32:00,75.0,68.1,30.15,East,90,5.0,10.0,79,0.00,,---,0.00,VWS V14.01,2013-05-28 01:32:00,
2013-05-27 21:37:00,75.0,67.7,30.15,SE,135,1.0,6.0,78,0.00,,---,0.00,VWS V14.01,2013-05-28 01:37:00,
2013-05-27 21:42:00,75.0,68.1,30.15,East,90,7.0,9.0,79,0.00,,---,0.00,VWS V14.01,2013-05-28 01:42:00,
2013-05-27 21:47:00,75.0,67.7,30.15,East,90,1.0,9.0,78,0.00,,---,0.00,VWS V14.01,2013-05-28 01:47:00,
2013-05-27 21:52:00,75.0,68.1,30.15,East,90,1.0,6.0,79,0.00,,---,0.00,VWS V14.01,2013-05-28 01:52:00,
2013-05-27 21:57:00,75.0,67.7,30.15,East,90,4.0,7.0,78,0.00,,---,0.00,VWS V14.01,2013-05-28 01:57:00,
2013-05-27 22:02:00,75.0,68.1,30.15,East,90,2.0,6.0,79,0.00,,---,0.00,VWS V14.01,2013-05-28 02:02:00,
2013-05-27 22:07:00,75.0,68.1,30.15,East,90,4.0,4.0,79,0.00,,---,0.00,VWS V14.01,2013-05-28 02:07:00,
2013-05-27 22:12:00,74.0,67.4,30.15,ESE,112,0.0,7.0,80,0.00,,---,0.00,VWS V14.01,2013-05-28 02:12:00,
2013-05-27 22:17:00,75.0,68.4,30.16,ESE,112,1.0,6.0,80,0.00,,---,0.00,VWS V14.01,2013-05-28 02:17:00,
2013-05-27 22:22:00,74.0,67.4,30.16,East,90,6.0,6.0,80,0.00,,---,0.00,VWS V14.01,2013-05-28 02:22:00,
2013-05-27 22:27:00,75.0,68.4,30.16,East,90,1.0,5.0,80,0.00,,---,0.00,VWS V14.01,2013-05-28 02:27:00,
2013-05-27 22:32:00,74.0,67.1,30.16,East,90,4.0,13.0,79,0.00,,---,0.00,VWS V14.01,2013-05-28 02:32:00,
2013-05-27 22:37:00,75.0,68.1,30.16,East,90,2.0,7.0,79,0.00,,---,0.00,VWS V14.01,2013-05-28 02:37:00,
2013-05-27 22:42:00,74.0,66.7,30.16,East,90,9.0,9.0,78,0.00,,---,0.00,VWS V14.01,2013-05-28 02:42:00,
2013-05-27 22:47:00,75.0,66.9,30.16,East,90,2.0,6.0,76,0.00,,---,0.00,VWS V14.01,2013-05-28 02:47:00,
2013-05-27 22:52:00,74.0,66.7,30.16,ESE,112,7.0,10.0,78,0.00,,---,0.00,VWS V14.01,2013-05-28 02:52:00,
2013-05-27 22:57:00,75.0,67.7,30.16,East,90,6.0,12.0,78,0.00,,---,0.00,VWS V14.01,2013-05-28 02:57:00,
2013-05-27 23:02:00,74.0,67.1,30.16,East,90,6.0,7.0,79,0.00,,---,0.00,VWS V14.01,2013-05-28 03:02:00,
2013-05-27 23:07:00,75.0,68.4,30.16,East,90,6.0,7.0,80,0.00,,---,0.00,VWS V14.01,2013-05-28 03:07:00,
2013-05-27 23:12:00,74.0,67.4,30.16,East,90,0.0,9.0,80,0.00,,---,0.00,VWS V14.01,2013-05-28 03:12:00,
2013-05-27 23:17:00,75.0,68.1,30.16,East,90,9.0,12.0,79,0.00,,---,0.00,VWS V14.01,2013-05-28 03:17:00,
2013-05-27 23:22:00,74.0,67.8,30.16,East,90,3.0,6.0,81,0.00,,---,0.00,VWS V14.01,2013-05-28 03:22:00,
2013-05-27 23:27:00,75.0,68.4,30.16,East,90,2.0,10.0,80,0.00,,---,0.00,VWS V14.01,2013-05-28 03:27:00,
2013-05-27 23:32:00,74.0,67.8,30.16,ESE,112,3.0,6.0,81,0.00,,---,0.00,VWS V14.01,2013-05-28 03:32:00,
2013-05-27 23:37:00,75.0,68.4,30.16,East,90,3.0,6.0,80,0.00,,---,0.00,VWS V14.01,2013-05-28 03:37:00,
2013-05-27 23:42:00,74.0,67.8,30.16,East,90,4.0,4.0,81,0.00,,---,0.00,VWS V14.01,2013-05-28 03:42:00,
2013-05-27 23:48:00,75.0,68.8,30.16,ESE,112,2.0,6.0,81,0.00,,---,0.00,VWS V14.01,2013-05-28 03:48:00,
2013-05-27 23:53:00,75.0,68.4,30.16,East,90,6.0,7.0,80,0.00,,---,0.00,VWS V14.01,2013-05-28 03:53:00,
2013-05-27 23:58:00,75.0,68.1,30.16,ESE,112,3.0,6.0,79,0.00,,---,0.00,VWS V14.01,2013-05-28 03:58:00,